createdAt,value
2018-01-23T00:00:06.008Z,975.92
2018-01-23T00:01:05.573Z,975.70
2018-01-23T00:02:05.610Z,975.75
2018-01-23T00:03:05.597Z,975.67
2018-01-23T00:04:05.580Z,975.72
2018-01-23T00:05:05.637Z,975.84
2018-01-23T00:06:05.329Z,975.89
2018-01-23T00:07:05.208Z,975.73
2018-01-23T00:08:05.976Z,975.73
2018-01-23T00:09:06.031Z,975.78
2018-01-23T00:10:05.650Z,975.75
2018-01-23T00:11:05.658Z,975.78
2018-01-23T00:12:05.339Z,975.87
2018-01-23T00:13:05.084Z,976.01
2018-01-23T00:14:09.018Z,975.92
2018-01-23T00:15:05.182Z,976.04
2018-01-23T00:16:05.403Z,976.04
2018-01-23T00:17:05.982Z,976.01
2018-01-23T00:18:05.546Z,975.95
2018-01-23T00:19:05.710Z,976.01
2018-01-23T00:20:05.290Z,975.95
2018-01-23T00:21:10.299Z,976.18
2018-01-23T00:22:05.733Z,976.01
2018-01-23T00:23:05.652Z,976.06
2018-01-23T00:24:05.649Z,976.17
2018-01-23T00:25:05.440Z,976.12
2018-01-23T00:26:05.322Z,976.09
2018-01-23T00:27:06.028Z,976.15
2018-01-23T00:28:06.189Z,976.23
2018-01-23T00:29:05.351Z,976.20
2018-01-23T00:30:05.649Z,976.14
2018-01-23T00:31:04.961Z,976.20
2018-01-23T00:32:05.822Z,976.17
2018-01-23T00:33:05.990Z,976.20
2018-01-23T00:34:05.704Z,976.20
2018-01-23T00:35:05.373Z,976.06
2018-01-23T00:36:05.047Z,976.06
2018-01-23T00:37:06.110Z,976.06
2018-01-23T00:38:05.288Z,976.14
2018-01-23T00:39:05.276Z,976.09
2018-01-23T00:40:05.495Z,976.17
2018-01-23T00:41:05.723Z,976.25
2018-01-23T00:42:05.604Z,976.34
2018-01-23T00:43:05.291Z,976.25
2018-01-23T00:44:06.039Z,976.28
2018-01-23T00:45:05.049Z,976.39
2018-01-23T00:46:05.569Z,976.31
2018-01-23T00:47:05.255Z,976.34
2018-01-23T00:48:05.555Z,976.31
2018-01-23T00:49:05.358Z,976.45
2018-01-23T00:50:04.998Z,976.40
2018-01-23T00:51:05.575Z,976.54
2018-01-23T00:52:05.789Z,976.56
2018-01-23T00:53:05.433Z,976.42
2018-01-23T00:54:05.229Z,976.62
2018-01-23T00:55:09.998Z,976.54
2018-01-23T00:56:05.367Z,976.42
2018-01-23T00:57:05.224Z,976.51
2018-01-23T00:58:05.024Z,976.45
2018-01-23T00:59:05.791Z,976.62
2018-01-23T01:00:05.675Z,976.54
2018-01-23T01:01:05.635Z,976.51
2018-01-23T01:02:05.319Z,976.62
2018-01-23T01:03:06.005Z,976.75
2018-01-23T01:04:05.204Z,976.73
2018-01-23T01:05:05.093Z,976.68
2018-01-23T01:06:05.789Z,976.65
2018-01-23T01:07:05.012Z,976.62
2018-01-23T01:08:05.696Z,976.75
2018-01-23T01:09:05.569Z,976.59
2018-01-23T01:10:05.443Z,976.70
2018-01-23T01:11:05.165Z,976.86
2018-01-23T01:12:05.836Z,976.92
2018-01-23T01:13:05.353Z,976.86
2018-01-23T01:14:05.284Z,976.81
2018-01-23T01:15:05.345Z,976.83
2018-01-23T01:16:05.823Z,977.09
2018-01-23T01:17:05.702Z,977.03
2018-01-23T01:18:05.359Z,976.95
2018-01-23T01:19:05.646Z,977.06
2018-01-23T01:20:05.004Z,977.09
2018-01-23T01:21:05.088Z,977.20
2018-01-23T01:22:04.985Z,977.14
2018-01-23T01:23:05.655Z,977.17
2018-01-23T01:24:05.264Z,977.20
2018-01-23T01:25:05.231Z,977.14
2018-01-23T01:26:05.961Z,977.17
2018-01-23T01:27:05.894Z,977.17
2018-01-23T01:28:05.703Z,977.14
2018-01-23T01:29:05.151Z,977.11
2018-01-23T01:30:05.794Z,977.37
2018-01-23T01:31:05.176Z,977.20
2018-01-23T01:32:05.192Z,977.31
2018-01-23T01:33:05.819Z,977.31
2018-01-23T01:34:05.728Z,977.26
2018-01-23T01:35:05.344Z,977.31
2018-01-23T01:36:05.437Z,977.23
2018-01-23T01:37:05.965Z,977.42
2018-01-23T01:38:05.771Z,977.45
2018-01-23T01:39:05.846Z,977.34
2018-01-23T01:40:05.864Z,977.37
2018-01-23T01:41:05.473Z,977.34
2018-01-23T01:42:05.158Z,977.42
2018-01-23T01:43:05.346Z,977.48
2018-01-23T01:44:05.333Z,977.54
2018-01-23T01:45:06.044Z,977.51
2018-01-23T01:46:05.605Z,977.59
2018-01-23T01:47:05.724Z,977.56
2018-01-23T01:48:05.630Z,977.51
2018-01-23T01:49:05.206Z,977.54
2018-01-23T01:50:05.365Z,977.72
2018-01-23T01:51:05.354Z,977.78
2018-01-23T01:52:05.243Z,977.81
2018-01-23T01:53:05.333Z,977.72
2018-01-23T01:54:05.389Z,977.72
2018-01-23T01:55:05.103Z,977.78
2018-01-23T01:56:05.732Z,977.72
2018-01-23T01:57:05.791Z,977.81
2018-01-23T01:58:05.938Z,977.72
2018-01-23T01:59:06.005Z,977.72
2018-01-23T02:00:05.247Z,977.89
2018-01-23T02:01:05.310Z,977.86
2018-01-23T02:02:05.462Z,977.87
2018-01-23T02:03:05.852Z,977.87
2018-01-23T02:04:05.472Z,978.06
2018-01-23T02:05:05.723Z,977.86
2018-01-23T02:06:05.530Z,977.95
2018-01-23T02:07:05.397Z,977.98
2018-01-23T02:08:05.077Z,978.15
2018-01-23T02:09:05.132Z,977.92
2018-01-23T02:10:05.818Z,977.98
2018-01-23T02:11:05.921Z,978.09
2018-01-23T02:12:05.704Z,977.89
2018-01-23T02:13:05.155Z,978.03
2018-01-23T02:14:05.717Z,978.03
2018-01-23T02:15:05.508Z,978.01
2018-01-23T02:16:05.070Z,978.03
2018-01-23T02:17:05.996Z,978.09
2018-01-23T02:18:05.198Z,978.01
2018-01-23T02:19:05.768Z,977.89
2018-01-23T02:20:05.051Z,978.01
2018-01-23T02:21:05.832Z,977.95
2018-01-23T02:22:05.847Z,977.87
2018-01-23T02:23:05.629Z,977.95
2018-01-23T02:24:05.859Z,977.98
2018-01-23T02:25:05.498Z,978.06
2018-01-23T02:26:05.507Z,977.92
2018-01-23T02:27:05.869Z,977.89
2018-01-23T02:28:05.206Z,978.06
2018-01-23T02:29:06.034Z,977.98
2018-01-23T02:30:05.702Z,977.98
2018-01-23T02:31:05.551Z,977.84
2018-01-23T02:32:05.651Z,977.84
2018-01-23T02:33:05.516Z,977.89
2018-01-23T02:34:05.402Z,977.89
2018-01-23T02:35:05.412Z,977.84
2018-01-23T02:36:04.959Z,978.06
2018-01-23T02:37:05.738Z,977.89
2018-01-23T02:38:05.479Z,978.06
2018-01-23T02:39:05.438Z,977.78
2018-01-23T02:40:05.227Z,977.87
2018-01-23T02:41:05.226Z,977.86
2018-01-23T02:42:05.496Z,978.00
2018-01-23T02:43:05.994Z,977.84
2018-01-23T02:44:05.962Z,977.92
2018-01-23T02:45:05.262Z,978.09
2018-01-23T02:46:05.327Z,978.06
2018-01-23T02:47:05.244Z,977.95
2018-01-23T02:48:05.099Z,978.09
2018-01-23T02:49:05.672Z,978.09
2018-01-23T02:50:05.614Z,978.00
2018-01-23T02:51:05.110Z,977.89
2018-01-23T02:52:05.179Z,977.95
2018-01-23T02:53:05.810Z,978.09
2018-01-23T02:54:05.910Z,978.06
2018-01-23T02:55:05.615Z,977.97
2018-01-23T02:56:05.191Z,978.11
2018-01-23T02:57:06.283Z,978.00
2018-01-23T02:58:05.050Z,977.92
2018-01-23T02:59:05.589Z,978.00
2018-01-23T03:00:05.257Z,978.03
2018-01-23T03:01:05.750Z,978.03
2018-01-23T03:02:05.324Z,978.03
2018-01-23T03:03:04.952Z,978.06
2018-01-23T03:04:05.394Z,978.09
2018-01-23T03:05:05.181Z,978.20
2018-01-23T03:06:05.743Z,978.25
2018-01-23T03:07:05.426Z,978.09
2018-01-23T03:08:05.268Z,978.20
2018-01-23T03:09:05.692Z,978.28
2018-01-23T03:10:05.240Z,978.25
2018-01-23T03:11:05.360Z,978.39
2018-01-23T03:12:05.705Z,978.31
2018-01-23T03:13:06.145Z,978.31
2018-01-23T03:14:05.920Z,978.42
2018-01-23T03:15:05.525Z,978.23
2018-01-23T03:16:05.192Z,978.42
2018-01-23T03:17:05.590Z,978.34
2018-01-23T03:18:05.098Z,978.44
2018-01-23T03:19:05.305Z,978.39
2018-01-23T03:20:05.255Z,978.44
2018-01-23T03:21:04.946Z,978.47
2018-01-23T03:22:05.685Z,978.39
2018-01-23T03:23:06.117Z,978.50
2018-01-23T03:24:05.220Z,978.47
2018-01-23T03:25:06.024Z,978.58
2018-01-23T03:26:05.789Z,978.52
2018-01-23T03:27:05.662Z,978.55
2018-01-23T03:28:05.211Z,978.75
2018-01-23T03:29:05.788Z,978.61
2018-01-23T03:30:05.923Z,978.69
2018-01-23T03:31:05.967Z,978.66
2018-01-23T03:32:05.671Z,978.64
2018-01-23T03:33:05.498Z,978.69
2018-01-23T03:34:05.338Z,978.64
2018-01-23T03:35:05.205Z,978.72
2018-01-23T03:36:05.696Z,978.78
2018-01-23T03:37:05.263Z,978.80
2018-01-23T03:38:05.703Z,978.69
2018-01-23T03:39:05.843Z,978.69
2018-01-23T03:40:05.647Z,978.80
2018-01-23T03:41:05.028Z,978.83
2018-01-23T03:42:05.836Z,978.80
2018-01-23T03:43:05.600Z,978.58
2018-01-23T03:44:05.403Z,978.69
2018-01-23T03:45:05.570Z,978.78
2018-01-23T03:46:05.948Z,978.66
2018-01-23T03:47:05.800Z,978.75
2018-01-23T03:48:05.896Z,978.69
2018-01-23T03:49:05.723Z,978.80
2018-01-23T03:50:05.881Z,978.80
2018-01-23T03:51:05.501Z,978.83
2018-01-23T03:52:05.232Z,978.80
2018-01-23T03:53:05.963Z,978.75
2018-01-23T03:54:05.064Z,978.69
2018-01-23T03:55:05.145Z,978.75
2018-01-23T03:56:05.819Z,978.95
2018-01-23T03:57:05.386Z,978.89
2018-01-23T03:58:05.310Z,978.75
2018-01-23T03:59:05.994Z,978.86
2018-01-23T04:00:05.687Z,978.92
2018-01-23T04:01:05.579Z,978.95
2018-01-23T04:02:05.576Z,978.89
2018-01-23T04:03:05.536Z,978.89
2018-01-23T04:04:05.629Z,978.92
2018-01-23T04:05:05.470Z,979.14
2018-01-23T04:06:04.986Z,978.97
2018-01-23T04:07:05.858Z,979.03
2018-01-23T04:08:05.547Z,979.11
2018-01-23T04:09:06.061Z,979.00
2018-01-23T04:10:05.503Z,979.06
2018-01-23T04:11:05.901Z,979.09
2018-01-23T04:12:06.011Z,979.20
2018-01-23T04:13:05.138Z,979.20
2018-01-23T04:14:06.057Z,979.26
2018-01-23T04:15:05.804Z,979.12
2018-01-23T04:16:06.890Z,979.12
2018-01-23T04:17:05.035Z,979.14
2018-01-23T04:18:05.173Z,979.17
2018-01-23T04:19:05.211Z,979.00
2018-01-23T04:20:04.994Z,979.14
2018-01-23T04:21:05.204Z,979.28
2018-01-23T04:22:05.481Z,979.31
2018-01-23T04:23:05.476Z,979.20
2018-01-23T04:24:04.979Z,979.37
2018-01-23T04:25:05.927Z,979.31
2018-01-23T04:26:05.497Z,979.23
2018-01-23T04:27:06.036Z,979.34
2018-01-23T04:28:06.019Z,979.28
2018-01-23T04:29:05.682Z,979.40
2018-01-23T04:30:05.473Z,979.31
2018-01-23T04:31:05.669Z,979.34
2018-01-23T04:32:05.831Z,979.37
2018-01-23T04:33:05.683Z,979.34
2018-01-23T04:34:05.426Z,979.34
2018-01-23T04:35:05.044Z,979.45
2018-01-23T04:36:05.260Z,979.29
2018-01-23T04:37:05.409Z,979.29
2018-01-23T04:38:05.748Z,979.45
2018-01-23T04:39:05.462Z,979.45
2018-01-23T04:40:05.535Z,979.43
2018-01-23T04:41:05.916Z,979.45
2018-01-23T04:42:05.705Z,979.29
2018-01-23T04:43:05.307Z,979.43
2018-01-23T04:44:05.056Z,979.45
2018-01-23T04:45:05.104Z,979.48
2018-01-23T04:46:05.129Z,979.37
2018-01-23T04:47:05.640Z,979.40
2018-01-23T04:48:05.496Z,979.45
2018-01-23T04:49:05.947Z,979.37
2018-01-23T04:50:05.839Z,979.45
2018-01-23T04:51:05.772Z,979.43
2018-01-23T04:52:05.765Z,979.48
2018-01-23T04:53:05.562Z,979.51
2018-01-23T04:54:05.586Z,979.54
2018-01-23T04:55:05.795Z,979.62
2018-01-23T04:56:05.496Z,979.48
2018-01-23T04:57:05.355Z,979.57
2018-01-23T04:58:06.100Z,979.51
2018-01-23T04:59:05.168Z,979.65
2018-01-23T05:00:05.275Z,979.65
2018-01-23T05:01:05.089Z,979.60
2018-01-23T05:02:05.899Z,979.68
2018-01-23T05:03:05.479Z,979.76
2018-01-23T05:04:05.264Z,979.68
2018-01-23T05:05:05.208Z,979.79
2018-01-23T05:06:05.808Z,979.68
2018-01-23T05:07:05.844Z,979.63
2018-01-23T05:08:05.306Z,979.77
2018-01-23T05:09:05.697Z,979.71
2018-01-23T05:10:05.752Z,979.74
2018-01-23T05:11:05.201Z,979.79
2018-01-23T05:12:05.138Z,979.77
2018-01-23T05:13:05.179Z,979.95
2018-01-23T05:14:05.233Z,979.90
2018-01-23T05:15:05.271Z,979.77
2018-01-23T05:16:05.921Z,979.82
2018-01-23T05:17:05.766Z,979.95
2018-01-23T05:18:05.886Z,979.93
2018-01-23T05:19:06.034Z,979.93
2018-01-23T05:20:05.800Z,979.85
2018-01-23T05:21:05.399Z,980.04
2018-01-23T05:22:05.097Z,980.12
2018-01-23T05:23:05.714Z,979.98
2018-01-23T05:24:05.768Z,980.12
2018-01-23T05:25:06.426Z,980.23
2018-01-23T05:26:05.075Z,980.01
2018-01-23T05:27:05.032Z,980.01
2018-01-23T05:28:05.954Z,980.18
2018-01-23T05:29:05.811Z,980.31
2018-01-23T05:30:04.984Z,980.15
2018-01-23T05:31:06.096Z,980.07
2018-01-23T05:32:05.310Z,979.98
2018-01-23T05:33:05.895Z,980.23
2018-01-23T05:34:05.811Z,980.23
2018-01-23T05:35:05.586Z,980.13
2018-01-23T05:36:05.578Z,980.10
2018-01-23T05:37:05.370Z,980.15
2018-01-23T05:38:05.372Z,980.26
2018-01-23T05:39:05.102Z,980.12
2018-01-23T05:40:05.664Z,980.15
2018-01-23T05:41:05.109Z,980.07
2018-01-23T05:42:06.022Z,980.37
2018-01-23T05:43:05.941Z,980.26
2018-01-23T05:44:05.621Z,980.28
2018-01-23T05:45:05.572Z,980.26
2018-01-23T05:46:05.269Z,980.34
2018-01-23T05:47:05.990Z,980.39
2018-01-23T05:48:05.011Z,980.31
2018-01-23T05:49:05.037Z,980.12
2018-01-23T05:50:06.165Z,980.31
2018-01-23T05:51:05.479Z,980.40
2018-01-23T05:52:05.391Z,980.31
2018-01-23T05:53:05.398Z,980.39
2018-01-23T05:54:05.132Z,980.37
2018-01-23T05:55:05.907Z,980.39
2018-01-23T05:56:06.081Z,980.42
2018-01-23T05:57:05.288Z,980.42
2018-01-23T05:58:05.454Z,980.37
2018-01-23T05:59:05.110Z,980.53
2018-01-23T06:00:05.185Z,980.51
2018-01-23T06:01:05.362Z,980.48
2018-01-23T06:02:05.828Z,980.53
2018-01-23T06:03:05.740Z,980.62
2018-01-23T06:04:05.464Z,980.59
2018-01-23T06:05:05.311Z,980.51
2018-01-23T06:06:05.053Z,980.53
2018-01-23T06:07:05.355Z,980.65
2018-01-23T06:08:05.589Z,980.51
2018-01-23T06:09:05.381Z,980.56
2018-01-23T06:10:05.492Z,980.53
2018-01-23T06:11:05.993Z,980.62
2018-01-23T06:12:05.594Z,980.53
2018-01-23T06:13:05.722Z,980.53
2018-01-23T06:14:05.462Z,980.62
2018-01-23T06:15:05.354Z,980.73
2018-01-23T06:16:05.295Z,980.65
2018-01-23T06:17:11.021Z,980.76
2018-01-23T06:18:05.321Z,980.65
2018-01-23T06:19:05.037Z,980.76
2018-01-23T06:20:05.880Z,980.70
2018-01-23T06:21:05.573Z,980.84
2018-01-23T06:22:05.948Z,980.84
2018-01-23T06:23:05.765Z,980.84
2018-01-23T06:24:05.295Z,980.90
2018-01-23T06:25:06.096Z,980.79
2018-01-23T06:26:06.119Z,980.98
2018-01-23T06:27:05.943Z,980.84
2018-01-23T06:28:05.881Z,980.90
2018-01-23T06:29:05.427Z,980.81
2018-01-23T06:30:05.317Z,980.98
2018-01-23T06:31:05.216Z,980.81
2018-01-23T06:32:05.645Z,980.98
2018-01-23T06:33:05.906Z,981.04
2018-01-23T06:34:05.759Z,981.07
2018-01-23T06:35:04.986Z,980.84
2018-01-23T06:36:05.690Z,981.04
2018-01-23T06:37:05.451Z,980.96
2018-01-23T06:38:05.195Z,980.96
2018-01-23T06:39:05.962Z,981.07
2018-01-23T06:40:05.645Z,981.01
2018-01-23T06:41:05.359Z,981.04
2018-01-23T06:42:05.646Z,981.18
2018-01-23T06:43:05.563Z,981.12
2018-01-23T06:44:05.302Z,981.24
2018-01-23T06:45:05.630Z,981.15
2018-01-23T06:46:05.901Z,981.12
2018-01-23T06:47:05.294Z,981.15
2018-01-23T06:48:05.399Z,981.15
2018-01-23T06:49:05.019Z,981.21
2018-01-23T06:50:10.609Z,981.21
2018-01-23T06:51:05.556Z,981.32
2018-01-23T06:52:05.840Z,981.29
2018-01-23T06:53:05.613Z,981.21
2018-01-23T06:54:05.628Z,981.26
2018-01-23T06:55:05.161Z,981.24
2018-01-23T06:56:05.279Z,981.29
2018-01-23T06:57:05.917Z,981.43
2018-01-23T06:58:05.595Z,981.35
2018-01-23T06:59:05.768Z,981.43
2018-01-23T07:00:05.747Z,981.43
2018-01-23T07:01:05.131Z,981.26
2018-01-23T07:02:05.946Z,981.49
2018-01-23T07:03:06.165Z,981.43
2018-01-23T07:04:05.058Z,981.52
2018-01-23T07:05:05.768Z,981.52
2018-01-23T07:06:06.343Z,981.46
2018-01-23T07:07:10.492Z,981.46
2018-01-23T07:08:05.898Z,981.46
2018-01-23T07:09:05.820Z,981.54
2018-01-23T07:10:05.443Z,981.46
2018-01-23T07:11:05.584Z,981.67
2018-01-23T07:12:05.540Z,981.54
2018-01-23T07:13:05.710Z,981.54
2018-01-23T07:14:05.456Z,981.67
2018-01-23T07:15:05.548Z,981.73
2018-01-23T07:16:05.633Z,981.65
2018-01-23T07:17:05.706Z,981.81
2018-01-23T07:18:05.843Z,981.76
2018-01-23T07:19:05.773Z,981.62
2018-01-23T07:20:04.963Z,981.76
2018-01-23T07:21:05.988Z,981.67
2018-01-23T07:22:06.187Z,981.70
2018-01-23T07:23:06.035Z,981.67
2018-01-23T07:24:05.954Z,981.76
2018-01-23T07:25:05.402Z,981.79
2018-01-23T07:26:05.359Z,981.76
2018-01-23T07:27:05.632Z,981.87
2018-01-23T07:28:05.741Z,981.84
2018-01-23T07:29:05.888Z,981.73
2018-01-23T07:30:05.505Z,981.76
2018-01-23T07:31:05.492Z,981.62
2018-01-23T07:32:05.645Z,981.76
2018-01-23T07:33:05.900Z,981.79
2018-01-23T07:34:05.278Z,981.79
2018-01-23T07:35:05.867Z,981.64
2018-01-23T07:36:05.906Z,981.90
2018-01-23T07:37:05.556Z,981.76
2018-01-23T07:38:06.004Z,981.76
2018-01-23T07:39:05.140Z,981.73
2018-01-23T07:40:05.037Z,981.93
2018-01-23T07:41:06.306Z,981.95
2018-01-23T07:42:05.413Z,981.90
2018-01-23T07:43:05.914Z,982.04
2018-01-23T07:44:05.581Z,981.93
2018-01-23T07:45:05.914Z,982.15
2018-01-23T07:46:05.946Z,982.15
2018-01-23T07:47:05.221Z,982.23
2018-01-23T07:48:05.267Z,982.09
2018-01-23T07:49:05.911Z,982.09
2018-01-23T07:50:05.655Z,982.23
2018-01-23T07:51:05.129Z,982.23
2018-01-23T07:52:05.504Z,982.26
2018-01-23T07:53:05.580Z,982.34
2018-01-23T07:54:05.293Z,982.18
2018-01-23T07:55:05.605Z,982.26
2018-01-23T07:56:05.100Z,982.26
2018-01-23T07:57:06.061Z,982.12
2018-01-23T07:58:05.996Z,982.32
2018-01-23T07:59:05.556Z,982.29
2018-01-23T08:00:05.408Z,982.26
2018-01-23T08:01:05.546Z,982.45
2018-01-23T08:02:05.373Z,982.29
2018-01-23T08:03:05.855Z,982.40
2018-01-23T08:04:05.830Z,982.37
2018-01-23T08:05:05.897Z,982.40
2018-01-23T08:06:05.876Z,982.51
2018-01-23T08:07:05.336Z,982.34
2018-01-23T08:08:05.533Z,982.45
2018-01-23T08:09:05.239Z,982.37
2018-01-23T08:10:05.376Z,982.45
2018-01-23T08:11:05.535Z,982.42
2018-01-23T08:12:05.169Z,982.37
2018-01-23T08:13:05.726Z,982.45
2018-01-23T08:14:05.466Z,982.48
2018-01-23T08:15:05.504Z,982.45
2018-01-23T08:16:05.530Z,982.39
2018-01-23T08:17:05.664Z,982.56
2018-01-23T08:18:05.340Z,982.37
2018-01-23T08:19:05.365Z,982.48
2018-01-23T08:20:05.230Z,982.42
2018-01-23T08:21:05.116Z,982.62
2018-01-23T08:22:05.202Z,982.59
2018-01-23T08:23:05.044Z,982.62
2018-01-23T08:24:04.955Z,982.64
2018-01-23T08:25:05.173Z,982.56
2018-01-23T08:26:04.974Z,982.53
2018-01-23T08:27:05.776Z,982.50
2018-01-23T08:28:05.319Z,982.64
2018-01-23T08:29:06.032Z,982.53
2018-01-23T08:30:05.123Z,982.70
2018-01-23T08:31:05.273Z,982.58
2018-01-23T08:32:05.837Z,982.55
2018-01-23T08:33:05.083Z,982.64
2018-01-23T08:34:06.058Z,982.50
2018-01-23T08:35:05.254Z,982.58
2018-01-23T08:36:05.288Z,982.47
2018-01-23T08:37:05.261Z,982.58
2018-01-23T08:38:05.471Z,982.55
2018-01-23T08:39:05.519Z,982.61
2018-01-23T08:40:05.933Z,982.63
2018-01-23T08:41:05.022Z,982.75
2018-01-23T08:42:05.077Z,982.69
2018-01-23T08:43:05.236Z,982.63
2018-01-23T08:44:05.160Z,982.75
2018-01-23T08:45:06.165Z,982.69
2018-01-23T08:46:05.575Z,982.85
2018-01-23T08:47:05.230Z,982.82
2018-01-23T08:48:05.878Z,982.69
2018-01-23T08:49:05.865Z,982.66
2018-01-23T08:50:05.990Z,982.60
2018-01-23T08:51:05.912Z,982.79
2018-01-23T08:52:05.900Z,982.96
2018-01-23T08:53:05.828Z,982.82
2018-01-23T08:54:05.533Z,982.85
2018-01-23T08:55:05.252Z,982.79
2018-01-23T08:56:05.490Z,982.82
2018-01-23T08:57:05.351Z,982.82
2018-01-23T08:58:05.101Z,982.90
2018-01-23T08:59:04.975Z,982.98
2018-01-23T09:00:06.021Z,982.84
2018-01-23T09:01:05.274Z,982.90
2018-01-23T09:02:05.319Z,982.87
2018-01-23T09:03:06.230Z,983.04
2018-01-23T09:04:05.255Z,982.95
2018-01-23T09:05:05.465Z,983.09
2018-01-23T09:06:05.516Z,983.04
2018-01-23T09:07:05.213Z,982.98
2018-01-23T09:08:05.889Z,983.09
2018-01-23T09:09:05.882Z,983.09
2018-01-23T09:10:05.524Z,982.92
2018-01-23T09:11:05.319Z,982.98
2018-01-23T09:12:05.516Z,983.03
2018-01-23T09:13:05.526Z,983.12
2018-01-23T09:14:10.266Z,983.23
2018-01-23T09:15:05.498Z,983.11
2018-01-23T09:16:05.150Z,983.17
2018-01-23T09:17:10.626Z,983.23
2018-01-23T09:18:05.601Z,983.14
2018-01-23T09:19:05.403Z,983.20
2018-01-23T09:20:06.050Z,983.22
2018-01-23T09:21:05.614Z,983.22
2018-01-23T09:22:05.862Z,983.22
2018-01-23T09:23:05.267Z,983.35
2018-01-23T09:24:10.402Z,983.52
2018-01-23T09:25:05.789Z,983.35
2018-01-23T09:26:05.715Z,983.44
2018-01-23T09:27:05.799Z,983.30
2018-01-23T09:28:05.727Z,983.44
2018-01-23T09:29:05.792Z,983.55
2018-01-23T09:30:05.321Z,983.55
2018-01-23T09:31:05.416Z,983.49
2018-01-23T09:32:05.700Z,983.43
2018-01-23T09:33:05.339Z,983.46
2018-01-23T09:34:06.064Z,983.46
2018-01-23T09:35:05.401Z,983.33
2018-01-23T09:36:05.834Z,983.57
2018-01-23T09:37:05.610Z,983.60
2018-01-23T09:38:05.295Z,983.68
2018-01-23T09:39:05.351Z,983.79
2018-01-23T09:40:05.159Z,983.63
2018-01-23T09:41:05.289Z,983.65
2018-01-23T09:42:05.485Z,983.79
2018-01-23T09:43:05.265Z,983.65
2018-01-23T09:44:06.075Z,983.62
2018-01-23T09:45:05.815Z,983.85
2018-01-23T09:46:05.416Z,983.62
2018-01-23T09:47:05.414Z,983.85
2018-01-23T09:48:05.097Z,983.76
2018-01-23T09:49:05.397Z,983.76
2018-01-23T09:50:05.277Z,983.76
2018-01-23T09:51:05.891Z,983.73
2018-01-23T09:52:05.338Z,983.79
2018-01-23T09:53:05.404Z,983.65
2018-01-23T09:54:05.304Z,983.79
2018-01-23T09:55:05.284Z,983.67
2018-01-23T09:56:05.564Z,983.67
2018-01-23T09:57:05.354Z,983.76
2018-01-23T09:58:05.227Z,983.90
2018-01-23T09:59:06.059Z,983.73
2018-01-23T10:00:05.547Z,983.75
2018-01-23T10:01:05.106Z,983.64
2018-01-23T10:02:05.662Z,983.78
2018-01-23T10:03:05.849Z,983.75
2018-01-23T10:04:05.431Z,983.81
2018-01-23T10:05:05.283Z,983.87
2018-01-23T10:06:06.042Z,983.87
2018-01-23T10:07:05.172Z,983.78
2018-01-23T10:08:05.883Z,983.81
2018-01-23T10:09:05.518Z,983.89
2018-01-23T10:10:05.584Z,983.78
2018-01-23T10:11:05.582Z,983.95
2018-01-23T10:12:05.513Z,983.98
2018-01-23T10:13:05.952Z,983.78
2018-01-23T10:14:05.911Z,983.81
2018-01-23T10:15:05.922Z,983.89
2018-01-23T10:16:05.323Z,983.81
2018-01-23T10:17:05.430Z,983.83
2018-01-23T10:18:05.476Z,983.86
2018-01-23T10:19:05.235Z,983.75
2018-01-23T10:20:06.035Z,983.89
2018-01-23T10:21:05.612Z,983.75
2018-01-23T10:22:05.146Z,983.83
2018-01-23T10:23:05.811Z,983.94
2018-01-23T10:24:06.000Z,983.89
2018-01-23T10:25:06.135Z,983.94
2018-01-23T10:26:05.310Z,984.03
2018-01-23T10:27:05.728Z,984.00
2018-01-23T10:28:11.386Z,983.97
2018-01-23T10:29:05.442Z,983.88
2018-01-23T10:30:05.779Z,984.02
2018-01-23T10:31:05.141Z,983.97
2018-01-23T10:32:05.763Z,984.14
2018-01-23T10:33:05.076Z,983.97
2018-01-23T10:34:05.681Z,984.02
2018-01-23T10:35:05.636Z,984.11
2018-01-23T10:36:05.205Z,984.13
2018-01-23T10:37:05.416Z,983.96
2018-01-23T10:38:05.567Z,984.05
2018-01-23T10:39:05.263Z,984.02
2018-01-23T10:40:05.084Z,983.96
2018-01-23T10:41:05.458Z,983.96
2018-01-23T10:42:05.751Z,983.91
2018-01-23T10:43:05.523Z,983.99
2018-01-23T10:44:05.218Z,984.04
2018-01-23T10:45:05.517Z,983.96
2018-01-23T10:46:05.922Z,984.01
2018-01-23T10:47:05.658Z,984.10
2018-01-23T10:48:05.657Z,984.07
2018-01-23T10:49:05.031Z,984.07
2018-01-23T10:50:05.611Z,984.04
2018-01-23T10:51:05.300Z,984.04
2018-01-23T10:52:05.943Z,984.01
2018-01-23T10:53:05.710Z,983.95
2018-01-23T10:54:05.591Z,984.06
2018-01-23T10:55:05.968Z,984.03
2018-01-23T10:56:06.060Z,983.95
2018-01-23T10:57:06.116Z,984.01
2018-01-23T10:58:05.306Z,984.00
2018-01-23T10:59:05.212Z,983.81
2018-01-23T11:00:05.541Z,984.00
2018-01-23T11:01:05.811Z,984.12
2018-01-23T11:02:05.209Z,984.03
2018-01-23T11:03:05.614Z,983.97
2018-01-23T11:04:05.414Z,984.03
2018-01-23T11:05:05.912Z,984.03
2018-01-23T11:06:05.470Z,984.00
2018-01-23T11:07:05.593Z,984.03
2018-01-23T11:08:05.569Z,983.94
2018-01-23T11:09:05.171Z,984.08
2018-01-23T11:10:04.985Z,983.94
2018-01-23T11:11:06.019Z,983.91
2018-01-23T11:12:05.771Z,983.94
2018-01-23T11:13:05.411Z,984.08
2018-01-23T11:14:05.418Z,984.02
2018-01-23T11:15:05.513Z,984.16
2018-01-23T11:16:05.438Z,984.13
2018-01-23T11:17:05.678Z,984.05
2018-01-23T11:18:05.763Z,984.08
2018-01-23T11:19:05.929Z,984.05
2018-01-23T11:20:05.157Z,984.13
2018-01-23T11:21:05.165Z,984.08
2018-01-23T11:22:05.686Z,984.13
2018-01-23T11:23:05.825Z,984.16
2018-01-23T11:24:05.261Z,984.02
2018-01-23T11:25:05.828Z,984.13
2018-01-23T11:26:05.768Z,984.13
2018-01-23T11:27:05.873Z,984.13
2018-01-23T11:28:05.905Z,984.24
2018-01-23T11:29:05.098Z,984.13
2018-01-23T11:30:05.915Z,984.27
2018-01-23T11:31:05.563Z,984.27
2018-01-23T11:32:05.661Z,984.13
2018-01-23T11:33:05.548Z,984.13
2018-01-23T11:34:05.746Z,984.16
2018-01-23T11:35:05.547Z,984.24
2018-01-23T11:36:05.445Z,984.30
2018-01-23T11:37:04.980Z,984.24
2018-01-23T11:38:05.191Z,984.13
2018-01-23T11:39:05.131Z,984.27
2018-01-23T11:40:05.825Z,984.30
2018-01-23T11:41:05.373Z,984.16
2018-01-23T11:42:05.508Z,984.19
2018-01-23T11:43:05.786Z,984.25
2018-01-23T11:44:05.669Z,984.25
2018-01-23T11:45:05.214Z,984.33
2018-01-23T11:46:05.502Z,984.25
2018-01-23T11:47:05.756Z,984.19
2018-01-23T11:48:05.522Z,984.19
2018-01-23T11:49:05.744Z,984.11
2018-01-23T11:50:05.397Z,984.02
2018-01-23T11:51:05.567Z,984.22
2018-01-23T11:52:05.586Z,984.19
2018-01-23T11:53:05.492Z,984.11
2018-01-23T11:54:05.524Z,984.08
2018-01-23T11:55:05.500Z,984.13
2018-01-23T11:56:05.380Z,984.25
2018-01-23T11:57:05.322Z,984.14
2018-01-23T11:58:05.407Z,984.05
2018-01-23T11:59:05.507Z,984.16
2018-01-23T12:00:05.008Z,984.14
2018-01-23T12:01:05.657Z,984.11
2018-01-23T12:02:05.707Z,984.14
2018-01-23T12:03:05.289Z,984.19
2018-01-23T12:04:05.288Z,984.11
2018-01-23T12:05:05.539Z,984.08
2018-01-23T12:06:05.196Z,984.19
2018-01-23T12:07:05.344Z,984.22
2018-01-23T12:08:05.462Z,984.11
2018-01-23T12:09:05.370Z,984.16
2018-01-23T12:10:05.088Z,984.08
2018-01-23T12:11:05.841Z,984.00
2018-01-23T12:12:05.742Z,984.02
2018-01-23T12:13:05.440Z,984.14
2018-01-23T12:14:05.340Z,984.08
2018-01-23T12:15:05.179Z,984.17
2018-01-23T12:16:06.084Z,984.05
2018-01-23T12:17:05.346Z,984.17
2018-01-23T12:18:05.378Z,984.02
2018-01-23T12:19:05.521Z,984.14
2018-01-23T12:20:05.171Z,984.19
2018-01-23T12:21:05.456Z,984.02
2018-01-23T12:22:06.015Z,984.11
2018-01-23T12:23:05.728Z,984.05
2018-01-23T12:24:05.363Z,984.11
2018-01-23T12:25:05.241Z,984.11
2018-01-23T12:26:05.760Z,983.97
2018-01-23T12:27:05.427Z,983.91
2018-01-23T12:28:05.616Z,983.85